createdAt,value
2022-08-28T00:00:19.133Z,18.48
2022-08-28T00:02:45.390Z,18.45
2022-08-28T00:05:11.670Z,18.40
2022-08-28T00:07:37.889Z,18.45
2022-08-28T00:10:04.088Z,18.49
2022-08-28T00:12:30.312Z,18.43
2022-08-28T00:14:56.551Z,18.44
2022-08-28T00:17:22.911Z,18.23
2022-08-28T00:19:49.328Z,18.21
2022-08-28T00:22:15.578Z,18.17
2022-08-28T00:24:42.118Z,18.16
2022-08-28T00:27:08.534Z,18.05
2022-08-28T00:29:34.814Z,18.27
2022-08-28T00:32:01.072Z,18.16
2022-08-28T00:34:29.652Z,18.23
2022-08-28T00:36:59.457Z,18.09
2022-08-28T00:39:27.952Z,18.17
2022-08-28T00:41:57.833Z,18.10
2022-08-28T00:44:24.267Z,18.16
2022-08-28T00:46:50.553Z,18.15
2022-08-28T00:49:16.766Z,18.16
2022-08-28T00:51:43.007Z,18.18
2022-08-28T00:54:09.275Z,18.21
2022-08-28T00:56:35.462Z,18.10
2022-08-28T00:59:01.605Z,18.11
2022-08-28T01:01:27.785Z,18.10
2022-08-28T01:03:53.954Z,18.08
2022-08-28T01:06:20.095Z,18.03
2022-08-28T01:08:46.266Z,17.89
2022-08-28T01:11:16.879Z,17.96
2022-08-28T01:13:43.007Z,18.06
2022-08-28T01:16:09.221Z,18.09
2022-08-28T01:18:35.437Z,17.98
2022-08-28T01:21:01.633Z,17.97
2022-08-28T01:23:27.775Z,17.86
2022-08-28T01:25:53.924Z,17.92
2022-08-28T01:28:20.061Z,17.98
2022-08-28T01:30:46.256Z,17.89
2022-08-28T01:33:12.512Z,17.94
2022-08-28T01:35:38.655Z,17.91
2022-08-28T01:38:04.794Z,17.78
2022-08-28T01:40:31.070Z,17.86
2022-08-28T01:42:57.228Z,17.74
2022-08-28T01:45:23.385Z,17.68
2022-08-28T01:47:49.594Z,17.81
2022-08-28T01:50:17.596Z,17.81
2022-08-28T01:52:43.731Z,17.77
2022-08-28T01:55:09.901Z,17.65
2022-08-28T01:57:36.044Z,17.63
2022-08-28T02:00:02.170Z,17.63
2022-08-28T02:02:28.337Z,17.71
2022-08-28T02:04:54.517Z,17.60
2022-08-28T02:07:20.659Z,17.60
2022-08-28T02:09:46.827Z,17.56
2022-08-28T02:12:12.972Z,17.73
2022-08-28T02:14:39.114Z,17.70
2022-08-28T02:17:05.265Z,17.60
2022-08-28T02:19:31.414Z,17.67
2022-08-28T02:21:57.547Z,17.70
2022-08-28T02:24:23.704Z,17.51
2022-08-28T02:26:49.846Z,17.49
2022-08-28T02:29:15.976Z,17.45
2022-08-28T02:31:42.866Z,17.52
2022-08-28T02:34:08.998Z,17.46
2022-08-28T02:36:35.146Z,17.50
2022-08-28T02:39:01.317Z,17.44
2022-08-28T02:41:27.454Z,17.36
2022-08-28T02:43:53.592Z,17.29
2022-08-28T02:46:19.764Z,17.35
2022-08-28T02:48:45.977Z,17.24
2022-08-28T02:51:12.108Z,17.19
2022-08-28T02:53:38.266Z,17.04
2022-08-28T02:56:04.392Z,17.07
2022-08-28T02:58:30.530Z,17.30
2022-08-28T03:00:56.765Z,17.20
2022-08-28T03:03:22.992Z,17.16
2022-08-28T03:05:49.128Z,17.18
2022-08-28T03:08:15.275Z,17.04
2022-08-28T03:10:41.440Z,16.95
2022-08-28T03:13:07.579Z,17.00
2022-08-28T03:15:33.754Z,17.07
2022-08-28T03:17:59.913Z,17.01
2022-08-28T03:20:26.396Z,16.96
2022-08-28T03:22:52.554Z,16.95
2022-08-28T03:25:18.681Z,17.08
2022-08-28T03:27:44.821Z,16.95
2022-08-28T03:30:12.890Z,16.86
2022-08-28T03:32:39.014Z,16.99
2022-08-28T03:35:05.180Z,16.99
2022-08-28T03:37:31.609Z,16.98
2022-08-28T03:39:57.786Z,17.03
2022-08-28T03:42:23.946Z,16.99
2022-08-28T03:44:50.096Z,16.95
2022-08-28T03:47:16.217Z,16.87
2022-08-28T03:49:42.350Z,16.78
2022-08-28T03:52:08.510Z,16.70
2022-08-28T03:54:34.653Z,16.90
2022-08-28T03:57:00.792Z,16.94
2022-08-28T03:59:31.744Z,16.95
2022-08-28T04:01:59.862Z,16.93
2022-08-28T04:04:26.005Z,16.94
2022-08-28T04:06:52.157Z,16.86
2022-08-28T04:09:18.342Z,16.87
2022-08-28T04:11:44.491Z,16.74
2022-08-28T04:14:10.645Z,16.75
2022-08-28T04:16:36.850Z,16.77
2022-08-28T04:19:03.013Z,16.72
2022-08-28T04:21:29.237Z,16.49
2022-08-28T04:23:55.369Z,16.45
2022-08-28T04:26:21.491Z,16.31
2022-08-28T04:28:47.636Z,16.21
2022-08-28T04:31:13.912Z,16.20
2022-08-28T04:33:40.082Z,16.18
2022-08-28T04:36:06.576Z,16.21
2022-08-28T04:38:32.725Z,16.25
2022-08-28T04:40:58.946Z,16.39
2022-08-28T04:43:25.504Z,16.22
2022-08-28T04:45:51.696Z,16.24
2022-08-28T04:48:17.993Z,16.19
2022-08-28T04:50:44.347Z,16.13
2022-08-28T04:53:10.494Z,16.21
2022-08-28T04:55:53.702Z,16.11
2022-08-28T04:58:23.657Z,16.04
2022-08-28T05:00:50.371Z,16.01
2022-08-28T05:03:16.549Z,16.18
2022-08-28T05:05:42.711Z,16.18
2022-08-28T05:08:08.853Z,16.09
2022-08-28T05:10:35.002Z,16.13
2022-08-28T05:13:01.158Z,16.15
2022-08-28T05:15:27.315Z,16.19
2022-08-28T05:17:53.462Z,16.25
2022-08-28T05:20:19.616Z,16.23
2022-08-28T05:22:45.761Z,16.23
2022-08-28T05:25:11.891Z,16.29
2022-08-28T05:27:38.054Z,16.34
2022-08-28T05:30:04.192Z,16.31
2022-08-28T05:32:30.321Z,16.32
2022-08-28T05:34:56.467Z,16.29
2022-08-28T05:37:22.624Z,16.29
2022-08-28T05:39:48.745Z,16.15
2022-08-28T05:42:14.895Z,16.11
2022-08-28T05:44:41.033Z,16.08
2022-08-28T05:47:07.162Z,15.97
2022-08-28T05:49:33.313Z,16.13
2022-08-28T05:51:59.447Z,16.19
2022-08-28T05:54:25.578Z,16.23
2022-08-28T05:56:51.767Z,16.15
2022-08-28T06:02:04.542Z,16.16
2022-08-28T06:04:30.849Z,16.16
2022-08-28T06:06:57.005Z,16.18
2022-08-28T06:09:28.187Z,16.19
2022-08-28T06:11:55.432Z,16.02
2022-08-28T06:14:23.322Z,16.22
2022-08-28T06:16:51.108Z,16.30
2022-08-28T06:19:17.259Z,16.19
2022-08-28T06:21:43.415Z,16.32
2022-08-28T06:24:09.573Z,16.40
2022-08-28T06:26:35.701Z,16.55
2022-08-28T06:29:01.852Z,16.60
2022-08-28T06:31:32.463Z,16.49
2022-08-28T06:33:59.448Z,16.53
2022-08-28T06:36:25.580Z,16.69
2022-08-28T06:38:51.724Z,16.60
2022-08-28T06:41:17.852Z,16.63
2022-08-28T06:43:44.002Z,16.60
2022-08-28T06:46:10.230Z,16.56
2022-08-28T06:48:36.432Z,16.54
2022-08-28T06:51:02.596Z,16.47
2022-08-28T06:53:28.740Z,16.35
2022-08-28T06:55:54.869Z,16.38
2022-08-28T06:58:21.013Z,16.57
2022-08-28T07:00:47.166Z,16.65
2022-08-28T07:03:13.314Z,16.85
2022-08-28T07:05:39.468Z,16.82
2022-08-28T07:08:05.705Z,17.10
2022-08-28T07:10:31.906Z,17.22
2022-08-28T07:12:58.063Z,17.10
2022-08-28T07:15:24.213Z,17.14
2022-08-28T07:17:50.367Z,17.16
2022-08-28T07:20:16.574Z,17.07
2022-08-28T07:22:42.743Z,16.77
2022-08-28T07:25:08.929Z,16.79
2022-08-28T07:27:35.068Z,16.99
2022-08-28T07:30:01.224Z,17.02
2022-08-28T07:32:27.362Z,17.06
2022-08-28T07:34:53.490Z,16.72
2022-08-28T07:37:19.651Z,17.14
2022-08-28T07:39:45.789Z,17.26
2022-08-28T07:42:11.924Z,17.54
2022-08-28T07:44:38.093Z,17.64
2022-08-28T07:47:04.299Z,17.72
2022-08-28T07:49:30.562Z,17.80
2022-08-28T07:51:56.720Z,17.56
2022-08-28T07:54:22.839Z,17.56
2022-08-28T07:56:48.975Z,17.74
2022-08-28T07:59:16.750Z,17.76
2022-08-28T08:01:43.484Z,17.84
2022-08-28T08:04:09.659Z,17.98
2022-08-28T08:06:35.821Z,17.97
2022-08-28T08:09:02.013Z,17.61
2022-08-28T08:11:28.257Z,17.07
2022-08-28T08:13:58.611Z,17.08
2022-08-28T08:16:25.249Z,17.14
2022-08-28T08:18:51.448Z,17.31
2022-08-28T08:21:17.625Z,17.35
2022-08-28T08:23:43.771Z,17.28
2022-08-28T08:26:09.918Z,17.59
2022-08-28T08:28:36.068Z,17.70
2022-08-28T08:31:02.243Z,18.08
2022-08-28T08:33:28.415Z,18.20
2022-08-28T08:35:54.586Z,18.32
2022-08-28T08:38:20.747Z,18.10
2022-08-28T08:40:46.933Z,17.98
2022-08-28T08:43:13.253Z,17.78
2022-08-28T08:45:39.423Z,17.61
2022-08-28T08:48:05.622Z,17.87
2022-08-28T08:50:31.815Z,18.18
2022-08-28T08:52:58.005Z,18.07
2022-08-28T08:55:24.136Z,18.21
2022-08-28T08:57:50.288Z,18.01
2022-08-28T09:00:16.446Z,17.91
2022-08-28T09:02:42.620Z,17.74
2022-08-28T09:05:08.912Z,18.35
2022-08-28T09:07:35.042Z,18.38
2022-08-28T09:10:01.195Z,18.54
2022-08-28T09:12:27.371Z,18.78
2022-08-28T09:14:53.532Z,18.96
2022-08-28T09:17:19.677Z,19.15
2022-08-28T09:19:45.836Z,19.40
2022-08-28T09:22:11.979Z,19.44
2022-08-28T09:24:38.100Z,19.63
2022-08-28T09:27:04.301Z,19.84
2022-08-28T09:29:30.483Z,19.50
2022-08-28T09:31:56.625Z,19.62
2022-08-28T09:34:22.805Z,19.76
2022-08-28T09:36:48.946Z,19.88
2022-08-28T09:39:15.099Z,19.93
2022-08-28T09:41:41.249Z,19.75
2022-08-28T09:44:07.389Z,19.63
2022-08-28T09:46:33.615Z,19.24
2022-08-28T09:48:59.887Z,19.05
2022-08-28T09:51:26.314Z,19.23
2022-08-28T09:53:54.047Z,19.16
2022-08-28T09:56:20.212Z,19.16
2022-08-28T09:58:46.376Z,18.77
2022-08-28T10:01:12.573Z,19.00
2022-08-28T10:03:38.754Z,19.20
2022-08-28T10:06:04.905Z,19.51
2022-08-28T10:08:31.070Z,19.70
2022-08-28T10:10:57.251Z,19.48
2022-08-28T10:13:23.469Z,19.47
2022-08-28T10:15:49.658Z,19.61
2022-08-28T10:18:15.968Z,19.34
2022-08-28T10:20:42.106Z,19.30
2022-08-28T10:23:08.267Z,19.29
2022-08-28T10:25:34.415Z,19.43
2022-08-28T10:28:02.226Z,19.63
2022-08-28T10:30:28.383Z,19.66
2022-08-28T10:32:54.603Z,19.61
2022-08-28T10:35:20.754Z,19.84
2022-08-28T10:37:46.914Z,19.92
2022-08-28T10:40:13.134Z,19.77
2022-08-28T10:42:39.377Z,19.67
2022-08-28T10:45:05.575Z,19.63
2022-08-28T10:47:31.746Z,19.84
2022-08-28T10:49:57.898Z,19.77
2022-08-28T10:52:24.042Z,19.99
2022-08-28T10:54:50.214Z,20.31
2022-08-28T10:57:16.364Z,20.09
2022-08-28T10:59:42.541Z,20.13
2022-08-28T11:02:09.295Z,20.04
2022-08-28T11:04:35.484Z,19.77
2022-08-28T11:07:02.234Z,19.89
2022-08-28T11:09:28.506Z,20.22
2022-08-28T11:11:58.421Z,20.47
2022-08-28T11:14:27.314Z,20.19
2022-08-28T11:16:53.487Z,20.06
2022-08-28T11:19:19.645Z,19.94
2022-08-28T11:21:45.824Z,19.93
2022-08-28T11:24:12.285Z,20.12
2022-08-28T11:26:38.724Z,19.75
2022-08-28T11:29:05.174Z,20.01
2022-08-28T11:31:31.404Z,20.25
2022-08-28T11:33:57.562Z,20.07
2022-08-28T11:36:23.709Z,20.28
2022-08-28T11:38:49.862Z,20.03
2022-08-28T11:41:15.984Z,20.20
2022-08-28T11:43:42.115Z,20.46
2022-08-28T11:46:08.348Z,20.43
2022-08-28T11:48:34.521Z,20.53
2022-08-28T11:51:00.662Z,20.66
2022-08-28T11:53:26.820Z,20.60
2022-08-28T11:55:52.959Z,20.77
2022-08-28T11:58:19.107Z,20.68
2022-08-28T12:00:45.264Z,20.81
2022-08-28T12:03:11.503Z,20.81
2022-08-28T12:05:37.818Z,20.45
2022-08-28T12:08:05.062Z,20.66
2022-08-28T12:10:31.326Z,20.84
2022-08-28T12:12:57.472Z,21.14
2022-08-28T12:15:23.661Z,21.23
2022-08-28T12:17:49.811Z,20.92
2022-08-28T12:20:15.963Z,20.92
2022-08-28T12:22:42.128Z,21.00
2022-08-28T12:25:08.309Z,20.78
2022-08-28T12:27:34.488Z,20.91
2022-08-28T12:30:00.654Z,20.94
2022-08-28T12:32:26.787Z,20.86
2022-08-28T12:34:52.965Z,20.75
2022-08-28T12:37:19.145Z,20.93
2022-08-28T12:39:45.281Z,21.17
2022-08-28T12:42:11.408Z,21.38
2022-08-28T12:44:37.649Z,21.23
2022-08-28T12:47:03.791Z,21.17
2022-08-28T12:49:29.916Z,20.99
2022-08-28T12:51:56.093Z,21.04
2022-08-28T12:54:22.231Z,21.14
2022-08-28T12:56:48.353Z,21.26
2022-08-28T12:59:14.516Z,21.04
2022-08-28T13:01:40.740Z,21.12
2022-08-28T13:04:06.962Z,21.10
2022-08-28T13:06:33.208Z,21.33
2022-08-28T13:08:59.354Z,21.22
2022-08-28T13:11:25.509Z,21.24
2022-08-28T13:13:51.662Z,21.22
2022-08-28T13:16:17.857Z,21.08
2022-08-28T13:18:44.032Z,21.31
2022-08-28T13:21:10.193Z,21.42
2022-08-28T13:23:36.327Z,21.57
2022-08-28T13:26:02.474Z,21.36
2022-08-28T13:28:28.932Z,21.30
2022-08-28T13:30:55.120Z,21.57
2022-08-28T13:33:21.292Z,21.51
2022-08-28T13:35:47.471Z,21.69
2022-08-28T13:38:13.631Z,21.79
2022-08-28T13:40:57.497Z,21.91
2022-08-28T13:43:24.429Z,22.03
2022-08-28T13:45:50.622Z,21.82
2022-08-28T13:48:16.843Z,21.96
2022-08-28T13:50:43.007Z,21.84
2022-08-28T13:53:13.100Z,21.63
2022-08-28T13:55:39.381Z,21.48
2022-08-28T13:58:05.544Z,21.66
2022-08-28T14:00:31.682Z,21.83
2022-08-28T14:02:57.809Z,21.89
2022-08-28T14:05:23.974Z,21.97
2022-08-28T14:07:50.107Z,22.20
2022-08-28T14:10:16.268Z,22.23
2022-08-28T14:12:43.024Z,22.26
2022-08-28T14:15:09.160Z,22.06
2022-08-28T14:17:35.284Z,22.37
2022-08-28T14:20:01.478Z,22.24
2022-08-28T14:22:27.600Z,22.39
2022-08-28T14:24:53.743Z,22.59
2022-08-28T14:27:19.911Z,22.48
2022-08-28T14:29:46.061Z,22.62
2022-08-28T14:32:12.275Z,22.88
2022-08-28T14:34:39.038Z,22.89
2022-08-28T14:37:05.175Z,22.94
2022-08-28T14:39:31.306Z,23.09
2022-08-28T14:41:57.451Z,23.22
2022-08-28T14:44:23.577Z,23.81
2022-08-28T14:46:49.730Z,24.12
2022-08-28T14:49:15.899Z,23.84
2022-08-28T14:51:42.119Z,24.06
2022-08-28T14:54:08.253Z,24.48
2022-08-28T14:56:34.408Z,25.16
2022-08-28T14:59:00.540Z,24.54
2022-08-28T15:01:26.763Z,24.98
2022-08-28T15:04:05.929Z,27.92
2022-08-28T15:06:32.099Z,29.42
2022-08-28T15:08:58.245Z,30.52
2022-08-28T15:11:24.397Z,30.72
2022-08-28T15:13:50.552Z,29.93
2022-08-28T15:16:16.741Z,31.11
2022-08-28T15:18:42.965Z,31.63
2022-08-28T15:21:11.872Z,31.25
2022-08-28T15:23:38.018Z,31.33
2022-08-28T15:26:12.227Z,31.72
2022-08-28T15:28:41.323Z,31.37
2022-08-28T15:31:07.488Z,30.97
2022-08-28T15:33:33.702Z,29.99
2022-08-28T15:35:59.847Z,30.83
2022-08-28T15:38:25.988Z,32.16
2022-08-28T15:40:52.222Z,32.78
2022-08-28T15:43:18.347Z,31.15
2022-08-28T15:45:44.538Z,31.48
2022-08-28T15:48:10.765Z,31.08
2022-08-28T15:50:36.896Z,31.63
2022-08-28T15:53:03.033Z,32.41
2022-08-28T15:55:29.192Z,31.04
2022-08-28T15:57:55.325Z,30.47
2022-08-28T16:00:21.448Z,32.01
2022-08-28T16:02:47.589Z,33.09
2022-08-28T16:05:13.746Z,32.10
2022-08-28T16:07:39.871Z,30.80
2022-08-28T16:10:06.050Z,30.99
2022-08-28T16:12:32.197Z,29.94
2022-08-28T16:14:58.342Z,29.65
2022-08-28T16:17:24.562Z,27.87
2022-08-28T16:19:50.881Z,28.23
2022-08-28T16:22:17.009Z,27.81
2022-08-28T16:24:43.156Z,28.09
2022-08-28T16:27:14.697Z,28.95
2022-08-28T16:29:41.712Z,28.60
2022-08-28T16:32:07.953Z,29.49
2022-08-28T16:34:34.156Z,30.54
2022-08-28T16:37:00.321Z,30.73
2022-08-28T16:39:26.764Z,30.52
2022-08-28T16:41:52.914Z,29.99
2022-08-28T16:44:19.063Z,29.19
2022-08-28T16:46:45.293Z,29.69
2022-08-28T16:49:11.472Z,29.96
2022-08-28T16:51:37.627Z,29.86
2022-08-28T16:54:03.787Z,29.22
2022-08-28T16:56:29.947Z,28.89
2022-08-28T16:58:56.094Z,29.04
2022-08-28T17:01:22.331Z,28.78
2022-08-28T17:03:50.590Z,28.25
2022-08-28T17:06:16.728Z,28.88
2022-08-28T17:08:42.885Z,27.66
2022-08-28T17:11:09.026Z,27.55
2022-08-28T17:13:35.159Z,27.49
2022-08-28T17:16:01.388Z,27.09
2022-08-28T17:18:27.552Z,27.10
2022-08-28T17:20:53.681Z,27.44
2022-08-28T17:23:20.664Z,26.82
2022-08-28T17:25:46.800Z,26.04
2022-08-28T17:28:13.031Z,25.73
2022-08-28T17:30:39.307Z,26.21
2022-08-28T17:33:05.450Z,26.41
2022-08-28T17:35:31.583Z,26.52
2022-08-28T17:38:07.986Z,26.21
2022-08-28T17:40:34.151Z,25.85
2022-08-28T17:43:00.352Z,25.99
2022-08-28T17:45:26.909Z,26.26
2022-08-28T17:47:53.035Z,25.96
2022-08-28T17:50:19.164Z,26.16
2022-08-28T17:52:45.315Z,25.09
2022-08-28T17:55:11.468Z,25.21
2022-08-28T17:57:37.609Z,24.97
2022-08-28T18:00:05.153Z,24.31
2022-08-28T18:02:31.452Z,24.17
2022-08-28T18:04:57.624Z,23.90
2022-08-28T18:07:23.815Z,23.90
2022-08-28T18:09:49.968Z,23.20
2022-08-28T18:12:16.110Z,23.12
2022-08-28T18:14:42.310Z,23.11
2022-08-28T18:17:09.142Z,22.84
2022-08-28T18:19:35.397Z,22.32
2022-08-28T18:22:01.552Z,22.16
2022-08-28T18:24:27.690Z,22.03
2022-08-28T18:26:53.824Z,21.92
2022-08-28T18:29:20.022Z,21.77
2022-08-28T18:31:46.264Z,21.67
2022-08-28T18:34:12.510Z,21.64
2022-08-28T18:36:38.661Z,21.41
2022-08-28T18:39:04.799Z,21.33
2022-08-28T18:41:37.670Z,21.36
2022-08-28T18:44:10.490Z,21.27
2022-08-28T18:46:36.674Z,21.20
2022-08-28T18:49:02.845Z,21.14
2022-08-28T18:51:29.033Z,21.08
2022-08-28T18:53:55.222Z,20.79
2022-08-28T18:56:21.401Z,20.62
2022-08-28T18:58:47.557Z,20.64
2022-08-28T19:01:13.740Z,20.58
2022-08-28T19:03:39.911Z,20.50
2022-08-28T19:06:06.070Z,20.42
2022-08-28T19:08:32.202Z,20.41
2022-08-28T19:10:58.337Z,20.32
2022-08-28T19:13:24.545Z,20.09
2022-08-28T19:15:50.789Z,20.07
2022-08-28T19:18:17.039Z,20.09
2022-08-28T19:20:43.198Z,19.94
2022-08-28T19:23:09.326Z,19.77
2022-08-28T19:25:35.472Z,19.71
2022-08-28T19:28:01.800Z,19.64
2022-08-28T19:30:27.979Z,19.72
2022-08-28T19:32:54.150Z,19.45
2022-08-28T19:35:20.296Z,19.39
2022-08-28T19:37:50.564Z,19.36
2022-08-28T19:40:16.794Z,19.21
2022-08-28T19:42:42.983Z,19.13
2022-08-28T19:45:09.116Z,19.08
2022-08-28T19:47:35.723Z,19.09
2022-08-28T19:50:02.349Z,19.01
2022-08-28T19:52:28.486Z,18.80
2022-08-28T19:54:55.489Z,18.77
2022-08-28T19:57:21.766Z,18.68
2022-08-28T19:59:48.621Z,18.77
2022-08-28T20:02:14.800Z,18.66
2022-08-28T20:04:40.982Z,18.74
2022-08-28T20:07:07.130Z,18.64
2022-08-28T20:09:33.256Z,18.58
2022-08-28T20:11:59.400Z,18.53
2022-08-28T20:14:25.549Z,18.41
2022-08-28T20:16:51.687Z,18.45
2022-08-28T20:19:17.844Z,18.47
2022-08-28T20:21:43.991Z,18.19
2022-08-28T20:24:10.117Z,18.25
2022-08-28T20:26:36.717Z,18.01
2022-08-28T20:29:02.846Z,18.18
2022-08-28T20:31:29.012Z,17.97
2022-08-28T20:33:55.219Z,18.04
2022-08-28T20:36:21.585Z,18.11
2022-08-28T20:38:47.750Z,18.05
2022-08-28T20:41:13.914Z,17.93
2022-08-28T20:43:40.112Z,17.88
2022-08-28T20:46:07.569Z,17.85
2022-08-28T20:48:33.756Z,17.84
2022-08-28T20:50:59.891Z,17.97
2022-08-28T20:53:36.900Z,17.87
2022-08-28T20:56:04.596Z,17.84
2022-08-28T20:58:30.724Z,17.76
2022-08-28T21:00:59.399Z,17.68
2022-08-28T21:03:27.192Z,17.75
2022-08-28T21:05:54.608Z,17.64
2022-08-28T21:08:20.761Z,17.64
2022-08-28T21:10:46.905Z,17.55
2022-08-28T21:13:13.062Z,17.62
2022-08-28T21:15:39.206Z,17.51
2022-08-28T21:18:05.358Z,17.49
2022-08-28T21:20:31.498Z,17.43
2022-08-28T21:22:57.652Z,17.50
2022-08-28T21:25:23.813Z,17.44
2022-08-28T21:27:49.940Z,17.37
2022-08-28T21:30:16.086Z,17.31
2022-08-28T21:32:42.242Z,17.32
2022-08-28T21:35:08.382Z,17.28
2022-08-28T21:37:34.525Z,17.29
2022-08-28T21:40:00.819Z,17.27
2022-08-28T21:42:27.058Z,17.28
2022-08-28T21:44:53.225Z,17.22
2022-08-28T21:47:19.389Z,17.12
2022-08-28T21:49:45.532Z,17.07
2022-08-28T21:52:11.672Z,17.04
2022-08-28T21:54:37.842Z,17.07
2022-08-28T21:57:03.995Z,16.97
2022-08-28T21:59:37.783Z,16.99
2022-08-28T22:02:04.419Z,16.99
2022-08-28T22:04:30.649Z,16.95
2022-08-28T22:06:56.795Z,16.88
2022-08-28T22:09:22.959Z,16.84
2022-08-28T22:11:49.093Z,16.85
2022-08-28T22:14:15.218Z,16.81
2022-08-28T22:16:41.433Z,16.72
2022-08-28T22:19:07.604Z,16.62
2022-08-28T22:21:33.745Z,16.64
2022-08-28T22:23:59.926Z,16.61
2022-08-28T22:26:26.068Z,16.53
2022-08-28T22:28:52.192Z,16.53
2022-08-28T22:31:19.342Z,16.49
2022-08-28T22:33:45.560Z,16.34
2022-08-28T22:36:11.699Z,16.27
2022-08-28T22:38:37.850Z,16.29
2022-08-28T22:41:03.984Z,16.31
2022-08-28T22:43:30.127Z,16.30
2022-08-28T22:45:56.390Z,16.21
2022-08-28T22:48:22.542Z,16.24
2022-08-28T22:50:48.698Z,16.20
2022-08-28T22:53:16.114Z,16.06
2022-08-28T22:55:43.533Z,16.05
2022-08-28T22:58:09.778Z,15.76
2022-08-28T23:00:36.003Z,15.80
2022-08-28T23:03:02.223Z,15.58
2022-08-28T23:05:28.404Z,15.79
2022-08-28T23:07:54.554Z,15.80
2022-08-28T23:10:32.112Z,15.77
2022-08-28T23:13:06.855Z,15.69
2022-08-28T23:15:33.003Z,15.58
2022-08-28T23:17:59.129Z,15.50
2022-08-28T23:20:27.596Z,15.60
2022-08-28T23:22:58.117Z,15.47
2022-08-28T23:25:24.441Z,15.55
2022-08-28T23:27:50.590Z,15.59
2022-08-28T23:30:16.731Z,15.54
2022-08-28T23:32:42.882Z,15.38
2022-08-28T23:35:09.378Z,15.50
2022-08-28T23:37:35.509Z,15.22
2022-08-28T23:40:01.696Z,15.27
2022-08-28T23:42:27.887Z,15.25
2022-08-28T23:44:55.306Z,15.27
2022-08-28T23:47:21.456Z,15.16
2022-08-28T23:49:47.621Z,15.11
2022-08-28T23:52:13.787Z,15.20
2022-08-28T23:54:39.963Z,15.08
2022-08-28T23:57:07.313Z,14.97
2022-08-28T23:59:33.469Z,14.94
